Terminal Aerodrome Forecast
Issued by NWS Mt. Holly, NJ

Home | Current Version | Previous Version | Text Only | Print | Product List | Glossary On
Versions: 1 2 3 4 5 6 7 8 9 10 11 12 13 14 15 16
513
FTUS41 KPHI 270530
TAFRDG
TAF
KRDG 270530Z 2706/2806 15003KT P6SM OVC060
      TEMPO 2706/2707 -SHRA
     FM270900 18003KT 6SM HZ BKN100
     FM271500 23009KT P6SM SCT050 PROB30 2719/2722 4SM SHRA BKN040
     FM280000 20006KT P6SM SCT060=

USA.gov is the U.S. government's official web portal to all federal, state and local government web resources and services.